Terminal Aerodrome Forecast
Issued by NWS

Current Version | Previous Version | Graphics & Text | Print | Product List | Glossary On
Versions: 1 2 3 4 5 6 7 8 9 10 11 12 13 14 15 16 17 18
000
FTUS41 KILN 302300
TAFLCK
TAF
KLCK 302340Z 3100/3124 22008KT P6SM SCT060 BKN200
     FM310100 21006KT P6SM -SHRA SCT050 OVC120
     FM310700 19006KT 3SM -SHRA BR SCT012 BKN050
     FM311100 20006KT 3SM -SHRA BR OVC012
     FM311500 20009KT 5SM BR OVC015
     FM311800 20010KT P6SM BKN028=

USA.gov is the U.S. government's official web portal to all federal, state and local government web resources and services.